createdAt,value
2019-01-23T00:01:29.198Z,21.42
2019-01-23T00:03:59.164Z,21.73
2019-01-23T00:06:29.154Z,19.23
2019-01-23T00:08:59.798Z,18.75
2019-01-23T00:11:30.294Z,17.75
2019-01-23T00:14:00.381Z,18.30
2019-01-23T00:16:30.562Z,19.57
2019-01-23T00:19:00.528Z,20.77
2019-01-23T00:21:30.715Z,19.50
2019-01-23T00:24:00.783Z,19.50
2019-01-23T00:26:31.080Z,18.65
2019-01-23T00:29:00.972Z,19.37
2019-01-23T00:31:31.528Z,23.30
2019-01-23T00:34:01.806Z,21.52
2019-01-23T00:36:32.235Z,21.00
2019-01-23T00:39:02.459Z,20.27
2019-01-23T00:41:32.738Z,20.35
2019-01-23T00:44:02.652Z,23.90
2019-01-23T00:46:33.051Z,22.37
2019-01-23T00:49:03.218Z,20.43
2019-01-23T00:51:33.861Z,21.15
2019-01-23T00:54:04.260Z,20.15
2019-01-23T00:56:34.182Z,21.30
2019-01-23T00:59:04.404Z,23.83
2019-01-23T01:01:34.399Z,18.92
2019-01-23T01:04:04.627Z,22.77
2019-01-23T01:06:34.616Z,21.80
2019-01-23T01:09:08.405Z,20.80
2019-01-23T01:11:38.768Z,20.82
2019-01-23T01:14:08.839Z,20.60
2019-01-23T01:16:38.829Z,21.52
2019-01-23T01:23:04.345Z,21.12
2019-01-23T01:25:34.422Z,21.60
2019-01-23T01:28:04.793Z,20.40
2019-01-23T01:30:34.818Z,20.55
2019-01-23T01:33:05.290Z,21.33
2019-01-23T01:35:35.332Z,21.33
2019-01-23T01:38:06.032Z,20.17
2019-01-23T01:44:08.902Z,20.88
2019-01-23T01:46:39.186Z,21.93
2019-01-23T02:05:22.868Z,16.52
2019-01-23T02:07:53.143Z,22.02
2019-01-23T02:10:23.683Z,21.80
2019-01-23T02:12:54.282Z,18.15
2019-01-23T02:15:24.775Z,21.40
2019-01-23T02:17:55.060Z,22.42
2019-01-23T02:26:36.053Z,20.37
2019-01-23T02:29:09.547Z,18.52
2019-01-23T02:31:38.154Z,18.80
2019-01-23T02:37:58.248Z,20.23
2019-01-23T02:40:28.163Z,19.02
2019-01-23T02:42:58.254Z,17.02
2019-01-23T02:45:28.200Z,19.17
2019-01-23T02:47:58.266Z,20.50
2019-01-23T02:50:28.466Z,21.02
2019-01-23T02:52:58.381Z,19.77
2019-01-23T02:55:28.293Z,19.02
2019-01-23T02:57:58.281Z,20.17
2019-01-23T03:00:28.779Z,20.50
2019-01-23T03:02:58.851Z,18.15
2019-01-23T03:05:28.906Z,20.97
2019-01-23T03:07:58.793Z,18.42
2019-01-23T03:10:29.270Z,19.32
2019-01-23T03:13:00.682Z,19.92
2019-01-23T03:15:30.851Z,18.80
2019-01-23T03:18:01.251Z,19.05
2019-01-23T03:20:31.481Z,18.60
2019-01-23T03:23:01.425Z,19.40
2019-01-23T03:25:31.377Z,17.42
2019-01-23T03:28:01.355Z,18.98
2019-01-23T03:30:31.868Z,24.95
2019-01-23T03:33:02.134Z,19.67
2019-01-23T03:35:32.873Z,18.75
2019-01-23T03:38:03.117Z,19.55
2019-01-23T03:40:33.656Z,22.37
2019-01-23T03:43:03.596Z,19.62
2019-01-23T03:45:33.520Z,16.45
2019-01-23T03:48:03.581Z,20.20
2019-01-23T03:50:34.047Z,19.75
2019-01-23T03:53:04.838Z,19.02
2019-01-23T03:55:35.045Z,20.52
2019-01-23T03:58:05.344Z,19.92
2019-01-23T04:00:35.436Z,20.50
2019-01-23T04:03:05.988Z,19.30
2019-01-23T04:05:36.075Z,18.92
2019-01-23T04:08:06.157Z,19.92
2019-01-23T04:10:36.075Z,19.98
2019-01-23T04:13:06.299Z,18.45
2019-01-23T04:15:36.442Z,19.48
2019-01-23T04:18:06.829Z,18.57
2019-01-23T04:20:36.751Z,18.48
2019-01-23T04:23:07.195Z,21.20
2019-01-23T04:25:37.085Z,23.00
2019-01-23T04:28:06.976Z,19.87
2019-01-23T04:30:36.929Z,19.37
2019-01-23T04:33:07.059Z,18.10
2019-01-23T04:35:37.376Z,21.80
2019-01-23T04:38:07.794Z,19.87
2019-01-23T04:40:37.922Z,23.15
2019-01-23T04:43:08.063Z,21.15
2019-01-23T04:45:38.590Z,22.42
2019-01-23T04:48:08.470Z,20.90
2019-01-23T04:50:56.094Z,22.20
2019-01-23T04:53:32.445Z,23.50
2019-01-23T04:56:02.681Z,21.12
2019-01-23T04:58:32.680Z,21.62
2019-01-23T05:01:02.566Z,22.40
2019-01-23T05:03:32.714Z,21.23
2019-01-23T05:06:04.444Z,20.17
2019-01-23T05:08:34.602Z,20.40
2019-01-23T05:14:55.246Z,20.23
2019-01-23T05:17:25.163Z,19.07
2019-01-23T05:19:55.056Z,21.65
2019-01-23T05:22:24.991Z,17.27
2019-01-23T05:28:21.095Z,19.12
2019-01-23T05:38:23.484Z,18.37
2019-01-23T05:40:54.614Z,18.98
2019-01-23T05:43:24.961Z,18.12
2019-01-23T05:45:54.866Z,18.35
2019-01-23T05:48:24.778Z,20.82
2019-01-23T05:50:54.806Z,18.40
2019-01-23T05:53:24.807Z,19.90
2019-01-23T05:55:54.941Z,21.30
2019-01-23T05:58:24.852Z,21.15
2019-01-23T06:00:54.979Z,22.05
2019-01-23T06:03:25.121Z,22.82
2019-01-23T06:05:55.012Z,23.52
2019-01-23T06:08:25.021Z,19.52
2019-01-23T06:10:54.931Z,20.65
2019-01-23T06:17:15.717Z,19.90
2019-01-23T06:26:46.838Z,20.60
2019-01-23T06:29:16.769Z,18.80
2019-01-23T06:31:46.927Z,20.15
2019-01-23T06:34:17.056Z,20.88
2019-01-23T06:36:46.962Z,19.98
2019-01-23T06:39:16.843Z,19.48
2019-01-23T06:41:47.013Z,24.07
2019-01-23T06:44:16.974Z,19.15
2019-01-23T06:46:46.865Z,20.85
2019-01-23T06:49:16.742Z,23.07
2019-01-23T06:51:47.132Z,22.25
2019-01-23T06:54:17.271Z,23.20
2019-01-23T06:56:47.152Z,22.27
2019-01-23T06:59:17.067Z,23.00
2019-01-23T07:01:47.404Z,21.25
2019-01-23T07:04:17.290Z,19.65
2019-01-23T07:06:47.446Z,20.10
2019-01-23T07:09:17.337Z,23.35
2019-01-23T07:11:47.241Z,23.67
2019-01-23T07:14:17.113Z,22.70
2019-01-23T07:16:47.774Z,25.43
2019-01-23T07:19:17.773Z,22.30
2019-01-23T07:21:47.946Z,20.80
2019-01-23T07:24:18.072Z,23.92
2019-01-23T07:26:48.212Z,23.90
2019-01-23T07:29:18.629Z,19.62
2019-01-23T07:31:48.839Z,22.30
2019-01-23T07:34:18.771Z,24.27
2019-01-23T07:40:33.175Z,23.87
2019-01-23T07:43:03.447Z,24.82
2019-01-23T07:52:15.554Z,19.57
2019-01-23T07:54:45.466Z,21.82
2019-01-23T07:57:15.432Z,21.23
2019-01-23T07:59:45.347Z,21.85
2019-01-23T08:02:15.789Z,21.77
2019-01-23T08:04:45.768Z,20.77
2019-01-23T08:07:15.979Z,24.47
2019-01-23T08:09:46.146Z,22.22
2019-01-23T08:12:16.080Z,20.88
2019-01-23T08:14:46.122Z,21.20
2019-01-23T08:17:16.204Z,21.62
2019-01-23T08:19:46.075Z,21.42
2019-01-23T08:22:16.013Z,20.90
2019-01-23T08:24:45.907Z,21.12
2019-01-23T08:27:16.064Z,20.75
2019-01-23T08:29:46.259Z,21.40
2019-01-23T08:32:16.470Z,19.25
2019-01-23T08:34:46.419Z,26.57
2019-01-23T08:37:16.522Z,23.87
2019-01-23T08:39:46.829Z,20.85
2019-01-23T08:42:16.972Z,23.85
2019-01-23T08:48:38.550Z,23.15
2019-01-23T08:51:08.836Z,23.38
2019-01-23T08:53:39.218Z,22.37
2019-01-23T08:56:09.500Z,18.25
2019-01-23T08:58:39.391Z,19.98
2019-01-23T09:01:09.702Z,21.45
2019-01-23T09:03:39.614Z,22.32
2019-01-23T09:06:09.743Z,21.40
2019-01-23T09:08:39.953Z,21.25
2019-01-23T09:11:10.252Z,23.87
2019-01-23T09:13:40.181Z,19.57
2019-01-23T09:16:10.346Z,19.87
2019-01-23T09:18:40.578Z,21.85
2019-01-23T09:21:10.741Z,25.35
2019-01-23T09:23:40.893Z,24.00
2019-01-23T09:26:11.201Z,24.25
2019-01-23T09:28:41.160Z,23.73
2019-01-23T09:32:05.220Z,21.12
2019-01-23T09:35:01.086Z,26.25
2019-01-23T09:38:06.018Z,20.05
2019-01-23T09:41:17.485Z,21.20
2019-01-23T09:44:22.793Z,24.07
2019-01-23T09:47:17.154Z,22.95
2019-01-23T09:50:29.738Z,22.17
2019-01-23T09:53:18.869Z,22.40
2019-01-23T09:55:49.128Z,25.35
2019-01-23T09:58:19.037Z,23.67
2019-01-23T10:00:49.057Z,23.65
2019-01-23T10:03:23.111Z,22.30
2019-01-23T10:05:51.047Z,24.10
2019-01-23T10:08:20.973Z,18.98
2019-01-23T10:22:12.789Z,18.92
2019-01-23T10:24:43.058Z,21.57
2019-01-23T10:27:12.946Z,22.70
2019-01-23T10:29:42.932Z,21.37
2019-01-23T10:32:13.133Z,21.48
2019-01-23T10:34:43.051Z,24.07
2019-01-23T10:37:19.376Z,23.52
2019-01-23T10:39:44.646Z,22.32
2019-01-23T10:42:14.872Z,19.52
2019-01-23T10:44:44.813Z,22.42
2019-01-23T10:47:14.998Z,20.05
2019-01-23T10:49:44.910Z,21.48
2019-01-23T10:52:14.872Z,23.47
2019-01-23T10:54:44.813Z,19.10
2019-01-23T10:57:15.087Z,24.05
2019-01-23T10:59:45.525Z,18.35
2019-01-23T11:06:06.915Z,19.77
2019-01-23T11:08:36.809Z,21.35
2019-01-23T11:11:06.927Z,23.80
2019-01-23T11:13:36.898Z,20.88
2019-01-23T11:16:07.305Z,23.40
2019-01-23T11:18:37.279Z,23.67
2019-01-23T11:21:07.340Z,22.27
2019-01-23T11:23:37.573Z,21.65
2019-01-23T11:26:07.846Z,24.25
2019-01-23T11:28:38.214Z,22.82
2019-01-23T11:31:08.097Z,20.65
2019-01-23T11:33:38.213Z,20.60
2019-01-23T11:36:08.157Z,26.23
2019-01-23T11:38:38.047Z,23.90
2019-01-23T11:41:08.085Z,22.83
2019-01-23T11:43:38.325Z,24.73
2019-01-23T11:46:08.242Z,23.57
2019-01-23T11:48:38.761Z,24.60
2019-01-23T11:51:08.935Z,21.33
2019-01-23T11:53:38.992Z,24.20
2019-01-23T11:59:53.975Z,26.60
2019-01-23T12:02:30.561Z,27.47
2019-01-23T12:11:22.113Z,24.53
2019-01-23T12:13:52.017Z,23.80
2019-01-23T12:16:22.275Z,23.63
2019-01-23T12:18:52.693Z,25.83
2019-01-23T12:21:22.865Z,24.20
2019-01-23T12:23:58.224Z,26.82
2019-01-23T12:26:24.680Z,26.90
2019-01-23T12:28:54.644Z,25.45
2019-01-23T12:31:24.867Z,27.13
2019-01-23T12:33:54.769Z,25.83
2019-01-23T12:36:24.650Z,24.03
2019-01-23T12:38:55.343Z,24.67
2019-01-23T12:41:25.309Z,23.73
2019-01-23T12:43:55.367Z,25.57
2019-01-23T12:46:26.211Z,27.70
2019-01-23T12:48:56.180Z,26.93
2019-01-23T12:51:26.469Z,23.35
2019-01-23T12:57:47.631Z,22.13
2019-01-23T13:00:22.037Z,21.23
2019-01-23T13:02:52.756Z,24.10
2019-01-23T13:05:23.058Z,25.02
2019-01-23T13:07:53.677Z,22.60
2019-01-23T13:10:24.553Z,22.70
2019-01-23T13:12:55.137Z,23.38
2019-01-23T13:15:26.684Z,25.25
2019-01-23T13:17:56.971Z,21.80
2019-01-23T13:20:27.538Z,24.30
2019-01-23T13:22:57.595Z,24.12
2019-01-23T13:25:29.208Z,23.32
2019-01-23T13:28:02.111Z,23.63
2019-01-23T13:30:32.397Z,25.37
2019-01-23T13:33:03.187Z,25.00
2019-01-23T13:35:36.835Z,23.52
2019-01-23T13:38:10.905Z,26.73
2019-01-23T13:40:40.995Z,25.48
2019-01-23T13:43:11.197Z,21.03
2019-01-23T13:45:41.950Z,23.00
2019-01-23T13:48:12.451Z,23.62
2019-01-23T13:54:34.252Z,25.95
2019-01-23T13:57:42.118Z,25.37
2019-01-23T14:09:49.324Z,24.07
2019-01-23T14:12:20.064Z,23.42
2019-01-23T14:18:41.097Z,23.90
2019-01-23T14:21:11.456Z,23.80
2019-01-23T14:23:41.748Z,23.80
2019-01-23T14:26:11.830Z,24.00
2019-01-23T14:28:42.000Z,22.60
2019-01-23T14:31:12.157Z,22.80
2019-01-23T14:33:43.107Z,14.95
2019-01-23T14:36:13.706Z,22.50
2019-01-23T14:38:44.288Z,22.05
2019-01-23T14:45:06.573Z,22.82
2019-01-23T14:47:37.691Z,21.37
2019-01-23T14:50:11.094Z,23.75
2019-01-23T14:52:41.786Z,23.10
2019-01-23T14:55:12.897Z,22.73
2019-01-23T14:57:43.966Z,22.85
2019-01-23T15:00:18.768Z,22.17
2019-01-23T15:08:57.540Z,23.25
2019-01-23T15:11:28.697Z,21.57
2019-01-23T15:13:59.995Z,23.02
2019-01-23T15:16:31.210Z,20.82
2019-01-23T15:19:02.132Z,23.42
2019-01-23T15:21:33.017Z,24.63
2019-01-23T15:24:04.284Z,23.10
2019-01-23T15:26:35.102Z,20.60
2019-01-23T15:29:06.481Z,20.70
2019-01-23T15:31:38.087Z,22.87
2019-01-23T15:34:08.844Z,22.20
2019-01-23T15:36:39.728Z,23.22
2019-01-23T15:39:11.366Z,22.32
2019-01-23T15:45:33.768Z,18.48
2019-01-23T15:48:05.366Z,21.87
2019-01-23T15:50:37.136Z,18.45
2019-01-23T15:53:08.595Z,19.92
2019-01-23T15:55:43.931Z,20.35
2019-01-23T15:58:15.644Z,13.65
2019-01-23T16:00:47.018Z,17.77
2019-01-23T16:03:18.319Z,22.65
2019-01-23T16:05:50.416Z,20.00
2019-01-23T16:12:16.261Z,16.00
2019-01-23T16:22:00.643Z,22.20
2019-01-23T16:24:31.776Z,22.52
2019-01-23T16:34:21.261Z,21.80
2019-01-23T16:36:52.677Z,21.15
2019-01-23T16:39:25.158Z,22.93
2019-01-23T16:45:47.385Z,21.00
2019-01-23T16:48:19.024Z,24.12
2019-01-23T16:50:51.289Z,22.55
2019-01-23T16:57:13.876Z,22.35
2019-01-23T16:59:45.318Z,20.97
2019-01-23T17:02:16.858Z,25.25
2019-01-23T17:08:39.945Z,24.52
2019-01-23T17:11:11.652Z,22.40
2019-01-23T17:20:22.345Z,17.12
2019-01-23T17:37:49.732Z,24.63
2019-01-23T17:40:21.935Z,21.85
2019-01-23T17:42:53.643Z,24.77
2019-01-23T17:45:28.979Z,24.00
2019-01-23T17:48:00.704Z,23.27
2019-01-23T17:50:32.944Z,20.88
2019-01-23T17:53:04.511Z,24.82
2019-01-23T17:55:39.508Z,25.40
2019-01-23T17:58:14.734Z,24.70
2019-01-23T18:00:56.712Z,26.97
2019-01-23T18:03:28.729Z,26.77
2019-01-23T18:09:45.747Z,26.40
2019-01-23T18:19:37.360Z,26.77
2019-01-23T18:22:10.558Z,27.80
2019-01-23T18:24:42.854Z,28.45
2019-01-23T18:27:15.375Z,26.37
2019-01-23T18:29:48.329Z,26.82
2019-01-23T18:32:20.867Z,28.62
2019-01-23T18:36:14.634Z,27.40
2019-01-23T18:45:43.542Z,28.73
2019-01-23T18:48:58.453Z,23.85
2019-01-23T18:52:06.283Z,28.83
2019-01-23T18:54:38.279Z,28.95
2019-01-23T18:57:13.594Z,26.97
2019-01-23T18:59:45.843Z,30.45
2019-01-23T19:02:17.894Z,27.45
2019-01-23T19:04:49.985Z,29.70
2019-01-23T19:07:22.465Z,30.77
2019-01-23T19:09:54.793Z,26.05
2019-01-23T19:12:27.697Z,27.13
2019-01-23T19:15:00.197Z,29.90
2019-01-23T19:17:32.524Z,29.30
2019-01-23T19:20:05.591Z,32.20
2019-01-23T19:26:22.868Z,28.27
2019-01-23T19:28:57.463Z,28.80
2019-01-23T19:31:29.812Z,28.60
2019-01-23T19:37:47.772Z,28.47
2019-01-23T19:40:20.256Z,29.77
2019-01-23T19:42:52.523Z,29.30
2019-01-23T19:45:27.534Z,25.85
2019-01-23T20:02:58.076Z,23.90
2019-01-23T20:05:32.323Z,24.45
2019-01-23T20:08:04.883Z,28.23
2019-01-23T20:10:37.176Z,24.15
2019-01-23T20:17:00.900Z,26.42
2019-01-23T20:19:33.677Z,25.17
2019-01-23T20:22:05.930Z,27.75
2019-01-23T20:24:39.132Z,24.25
2019-01-23T20:27:11.060Z,25.12
2019-01-23T20:33:37.781Z,25.48
2019-01-23T20:36:10.004Z,24.05
2019-01-23T20:38:42.337Z,26.68
2019-01-23T20:41:16.059Z,24.43
2019-01-23T20:43:51.002Z,27.58
2019-01-23T20:46:23.194Z,26.10
2019-01-23T20:48:55.133Z,24.00
2019-01-23T20:51:27.080Z,28.17
2019-01-23T20:53:59.149Z,24.55
2019-01-23T21:00:25.162Z,25.92
2019-01-23T21:02:56.925Z,26.30
2019-01-23T21:05:29.339Z,25.95
2019-01-23T21:08:01.453Z,25.02
2019-01-23T21:10:33.070Z,23.80
2019-01-23T21:13:04.968Z,24.90
2019-01-23T21:15:36.915Z,26.42
2019-01-23T21:18:09.268Z,24.40
2019-01-23T21:20:43.284Z,29.75
2019-01-23T21:23:17.825Z,25.37
2019-01-23T21:25:49.649Z,20.65
2019-01-23T21:28:21.078Z,18.60
2019-01-23T21:30:52.859Z,21.00
2019-01-23T21:33:26.323Z,23.57
2019-01-23T21:35:58.340Z,26.80
2019-01-23T21:38:30.076Z,25.27
2019-01-23T21:41:03.708Z,21.20
2019-01-23T21:43:35.067Z,25.92
2019-01-23T21:46:06.442Z,23.05
2019-01-23T21:48:37.943Z,26.40
2019-01-23T21:51:09.983Z,20.85
2019-01-23T21:53:41.910Z,29.30
2019-01-23T21:56:13.817Z,28.00
2019-01-23T21:58:44.948Z,26.50
2019-01-23T22:01:16.120Z,25.80
2019-01-23T22:03:49.328Z,23.18
2019-01-23T22:10:11.960Z,24.00
2019-01-23T22:12:43.848Z,25.88
2019-01-23T22:15:17.462Z,27.30
2019-01-23T22:17:48.198Z,25.43
2019-01-23T22:24:03.841Z,25.00
2019-01-23T22:26:34.711Z,26.35
2019-01-23T22:29:06.067Z,25.80
2019-01-23T22:31:37.002Z,27.22
2019-01-23T22:34:07.613Z,28.25
2019-01-23T22:36:38.455Z,26.82
2019-01-23T22:43:00.090Z,23.38
2019-01-23T22:45:30.719Z,22.70
2019-01-23T22:48:00.995Z,25.80
2019-01-23T22:50:31.291Z,21.30
2019-01-23T22:53:01.358Z,30.70
2019-01-23T22:55:31.263Z,26.90
2019-01-23T22:58:01.725Z,28.45
2019-01-23T23:01:17.434Z,24.63
2019-01-23T23:03:47.968Z,25.48
2019-01-23T23:06:18.195Z,23.67
2019-01-23T23:12:40.218Z,24.75
2019-01-23T23:15:10.503Z,24.52
2019-01-23T23:17:40.543Z,28.62
2019-01-23T23:20:10.861Z,25.32
2019-01-23T23:22:41.080Z,26.95
2019-01-23T23:25:12.220Z,30.80
2019-01-23T23:27:43.875Z,24.80
2019-01-23T23:30:15.071Z,24.15
2019-01-23T23:32:45.354Z,25.80
2019-01-23T23:35:15.390Z,28.98
2019-01-23T23:37:45.412Z,21.97
2019-01-23T23:40:16.160Z,25.57
2019-01-23T23:42:46.233Z,17.77
2019-01-23T23:45:16.575Z,21.52
2019-01-23T23:47:46.646Z,27.20
2019-01-23T23:50:16.850Z,28.40
2019-01-23T23:52:47.084Z,28.17
2019-01-23T23:55:17.390Z,24.92
2019-01-23T23:57:47.664Z,26.90
